KBTV/BTV METAR and TAF weather

Enter ICAO airport designator
Station Type Date Time Source
KBTV METAR 2018/04/19 13:01 UTC NOAA

KBTV 191301Z 01009KT 10SM FEW015 BKN029 BKN065 03/00 A2971 RMK AO2 SHSN DSNT OBSCG MTNS E-S T00330000


Station Type Date Time Source
KBTV Decoded METAR 2018/04/19 13:01 UTC NOAA

BURLINGTON INTERNATIONAL, VT, United States (KBTV) 44-28N 73-09W 105M
Apr 19, 2018 - 09:01 AM EDT / 2018.04.19 1301 UTC
Wind: from the N (010 degrees) at 10 MPH (9 KT):0
Visibility: 10 mile(s):0
Sky conditions: mostly cloudy
Temperature: 37.9 F (3.3 C)
Dew Point: 32.0 F (0.0 C)
Relative Humidity: 78%
Pressure (altimeter): 29.71 in. Hg (1006 hPa)
ob: KBTV 191301Z 01009KT 10SM FEW015 BKN029 BKN065 03/00 A2971 RMK AO2 SHSN DSNT OBSCG MTNS E-S T00330000
cycle: 13

Station Type Date Time Source
KBTV TAF 2018/04/19 12:30 UTC NOAA

TAF KBTV 191127Z 1912/2012 00000KT P6SM VCSH BKN040
FM191900 33007KT P6SM VCSH BKN030
FM200000 32006KT P6SM -RA OVC020
FM200200 32008KT P6SM -RASN OVC015
FM200800 31009KT 4SM -SN OVC015


Example: see airport list